Time;durP1;ratioP1;P1;durP2;ratioP2;P2;SDS_P1;SDS_P2;PMS_P1;PMS_P2;Temp;Humidity;BMP_temperature;BMP_pressure;BME280_temperature;BME280_humidity;BME280_pressure;Samples;Min_cycle;Max_cycle;Signal;HPM_P1;HPM_P2
2021/08/25 00:00:27;;;;;;;2.17;0.40;;;22.20;99.90;;;;;;5023312;28;20028;-70
2021/08/25 00:02:52;;;;;;;0.57;0.30;;;22.10;99.90;;;;;;5016076;28;20037;-70
2021/08/25 00:05:18;;;;;;;0.63;0.40;;;22.10;99.90;;;;;;5026928;28;20537;-71
2021/08/25 00:07:44;;;;;;;0.60;0.60;;;22.10;99.90;;;;;;5028555;28;20123;-70
2021/08/25 00:10:11;;;;;;;0.40;0.40;;;22.10;99.90;;;;;;5021336;28;20033;-71
2021/08/25 00:12:37;;;;;;;0.60;0.60;;;22.00;99.90;;;;;;5028752;28;20506;-69
2021/08/25 00:15:05;;;;;;;1.02;0.30;;;22.00;99.90;;;;;;5020033;28;20045;-71
2021/08/25 00:17:31;;;;;;;1.17;0.70;;;22.00;99.90;;;;;;5029692;28;20033;-70
2021/08/25 00:19:57;;;;;;;0.47;0.47;;;22.00;99.90;;;;;;5022353;28;20025;-70
2021/08/25 00:22:23;;;;;;;0.68;0.47;;;22.00;99.90;;;;;;5021823;28;20103;-70
2021/08/25 00:24:50;;;;;;;0.93;0.93;;;21.90;99.90;;;;;;5028704;28;20034;-71
2021/08/25 00:27:16;;;;;;;0.77;0.63;;;21.90;99.90;;;;;;5029249;28;20029;-70
2021/08/25 00:29:42;;;;;;;1.38;0.40;;;21.90;99.90;;;;;;5024764;28;20025;-70
2021/08/25 00:32:07;;;;;;;0.55;0.55;;;21.90;99.90;;;;;;5024207;28;20034;-71
2021/08/25 00:34:33;;;;;;;0.55;0.40;;;21.80;99.90;;;;;;5029579;28;20025;-71
2021/08/25 00:36:59;;;;;;;0.70;0.70;;;21.70;99.90;;;;;;5024460;28;20095;-71
2021/08/25 00:39:25;;;;;;;0.65;0.40;;;21.70;99.90;;;;;;5028715;28;20026;-73
2021/08/25 00:41:50;;;;;;;0.45;0.45;;;21.60;99.90;;;;;;5028478;28;20026;-71
2021/08/25 00:44:16;;;;;;;1.35;0.60;;;21.60;99.90;;;;;;5023991;28;20025;-69
2021/08/25 00:46:42;;;;;;;0.82;0.40;;;21.60;99.90;;;;;;5025955;28;20040;-71
2021/08/25 00:49:09;;;;;;;2.83;0.68;;;21.50;99.90;;;;;;5025832;28;20042;-72
2021/08/25 00:51:35;;;;;;;1.17;0.60;;;21.60;99.90;;;;;;5022997;28;20164;-71
2021/08/25 00:54:01;;;;;;;0.65;0.65;;;21.50;99.90;;;;;;5019707;28;20124;-71
2021/08/25 00:56:27;;;;;;;0.50;0.50;;;21.50;99.90;;;;;;5026584;28;20034;-70
2021/08/25 00:58:52;;;;;;;0.57;0.57;;;21.40;99.90;;;;;;5015541;28;20392;-70
2021/08/25 01:02:16;;;;;;;0.45;0.45;;;21.40;99.90;;;;;;5018668;28;20744;-71
2021/08/25 01:04:57;;;;;;;0.90;0.55;;;21.40;99.90;;;;;;4959314;28;20579;-71
2021/08/25 01:07:26;;;;;;;1.33;0.80;;;21.30;99.90;;;;;;5022430;28;20087;-72
2021/08/25 01:09:52;;;;;;;1.15;0.50;;;21.20;99.90;;;;;;5016700;28;20029;-72
2021/08/25 01:12:24;;;;;;;1.73;0.82;;;21.30;99.90;;;;;;5028410;28;20101;-70
2021/08/25 01:14:50;;;;;;;1.25;0.82;;;21.20;99.90;;;;;;5020686;28;20038;-71
2021/08/25 01:17:34;;;;;;;0.82;0.60;;;21.20;99.90;;;;;;5027118;28;20037;-71
2021/08/25 01:20:11;;;;;;;2.85;0.57;;;21.00;99.90;;;;;;5025649;28;20037;-71
2021/08/25 01:22:43;;;;;;;0.60;0.60;;;21.00;99.90;;;;;;5026357;28;20076;-71
2021/08/25 01:25:10;;;;;;;1.15;1.05;;;21.00;99.90;;;;;;5030515;28;20116;-71
2021/08/25 01:27:40;;;;;;;0.95;0.75;;;21.00;99.90;;;;;;5020471;28;20026;-72
2021/08/25 01:30:07;;;;;;;1.42;1.00;;;20.90;99.90;;;;;;5024232;28;20052;-72
2021/08/25 01:32:39;;;;;;;0.95;0.93;;;20.80;99.90;;;;;;5031328;28;20166;-71
2021/08/25 01:35:06;;;;;;;0.90;0.75;;;20.70;99.90;;;;;;5026477;28;20075;-71
2021/08/25 01:37:31;;;;;;;1.08;0.95;;;20.70;99.90;;;;;;5029542;28;20419;-70
2021/08/25 01:39:57;;;;;;;1.23;1.13;;;20.60;99.90;;;;;;5027633;28;20036;-70
2021/08/25 01:42:25;;;;;;;1.45;0.88;;;20.60;99.90;;;;;;5031453;28;20490;-70
2021/08/25 01:44:51;;;;;;;2.20;1.30;;;20.50;99.90;;;;;;5027376;28;20088;-72
2021/08/25 01:47:18;;;;;;;1.17;1.08;;;20.50;99.90;;;;;;5029099;28;20118;-71
2021/08/25 01:49:45;;;;;;;2.00;1.60;;;20.50;99.90;;;;;;5019691;28;20492;-72
2021/08/25 01:52:12;;;;;;;1.58;1.40;;;20.40;99.90;;;;;;5019354;28;20499;-72
2021/08/25 01:54:38;;;;;;;1.85;1.73;;;20.40;99.90;;;;;;5023411;28;20040;-71
2021/08/25 01:57:06;;;;;;;3.63;2.00;;;20.30;99.90;;;;;;5026216;28;20122;-70
2021/08/25 01:59:32;;;;;;;4.50;2.47;;;20.40;99.90;;;;;;5029815;28;20032;-70
2021/08/25 02:01:58;;;;;;;2.70;1.92;;;20.40;99.90;;;;;;5019127;28;20101;-70
2021/08/25 02:04:23;;;;;;;5.85;2.40;;;20.30;99.90;;;;;;5027556;28;20456;-70
2021/08/25 02:06:49;;;;;;;2.85;2.20;;;20.40;99.90;;;;;;5032656;28;20025;-70
2021/08/25 02:09:16;;;;;;;2.55;2.10;;;20.40;99.90;;;;;;5020374;28;20032;-73
2021/08/25 02:11:42;;;;;;;2.38;2.17;;;20.40;99.90;;;;;;5031496;28;20460;-70
2021/08/25 02:14:08;;;;;;;3.75;2.53;;;20.40;99.90;;;;;;5028320;28;20534;-71
2021/08/25 02:16:34;;;;;;;10.02;3.42;;;20.30;99.90;;;;;;5029186;28;20057;-70
2021/08/25 02:19:00;;;;;;;7.65;2.20;;;20.30;99.90;;;;;;5022001;28;20057;-72
2021/08/25 02:21:26;;;;;;;4.05;3.65;;;20.30;99.90;;;;;;5027334;28;20025;-70
2021/08/25 02:23:52;;;;;;;4.50;3.38;;;20.30;99.90;;;;;;5030156;28;20075;-70
2021/08/25 02:26:18;;;;;;;4.53;2.92;;;20.30;99.90;;;;;;5031175;28;20449;-72
2021/08/25 02:28:49;;;;;;;4.57;3.80;;;20.20;99.90;;;;;;5028528;28;20029;-71
2021/08/25 02:31:16;;;;;;;3.60;3.15;;;20.20;99.90;;;;;;5024002;28;20036;-71
2021/08/25 02:33:42;;;;;;;4.70;3.72;;;20.20;99.90;;;;;;5028175;28;20068;-71
2021/08/25 02:36:09;;;;;;;6.90;3.70;;;20.10;99.90;;;;;;5026809;28;20032;-70
2021/08/25 02:38:37;;;;;;;3.50;3.20;;;20.10;99.90;;;;;;5028303;28;20499;-72
2021/08/25 02:41:05;;;;;;;4.13;3.72;;;20.10;99.90;;;;;;5027576;28;20033;-70
2021/08/25 02:43:31;;;;;;;5.15;3.55;;;20.10;99.90;;;;;;5030196;28;20029;-70
2021/08/25 02:45:57;;;;;;;3.75;3.05;;;20.00;99.90;;;;;;5024915;28;20028;-70
2021/08/25 02:48:22;;;;;;;9.60;3.65;;;20.00;99.90;;;;;;5029327;28;20041;-69
2021/08/25 02:50:48;;;;;;;12.85;5.70;;;20.00;99.90;;;;;;5028242;28;20384;-70
2021/08/25 02:53:16;;;;;;;5.35;3.75;;;20.00;99.90;;;;;;5024512;28;20033;-70
2021/08/25 02:55:42;;;;;;;5.05;3.40;;;20.00;99.90;;;;;;5007597;28;20096;-71
2021/08/25 02:58:08;;;;;;;6.75;2.90;;;20.00;99.90;;;;;;5030124;28;20033;-71
2021/08/25 03:00:34;;;;;;;6.10;3.95;;;20.00;99.90;;;;;;5015232;28;20025;-72
2021/08/25 03:02:59;;;;;;;7.20;3.67;;;20.00;99.90;;;;;;5029953;28;20029;-70
2021/08/25 03:05:25;;;;;;;4.82;3.70;;;19.90;99.90;;;;;;5023099;28;20033;-71
2021/08/25 03:07:51;;;;;;;6.68;4.13;;;20.00;99.90;;;;;;5030345;28;20219;-71
2021/08/25 03:10:17;;;;;;;8.15;3.40;;;19.90;99.90;;;;;;5028617;28;20032;-71
2021/08/25 03:12:42;;;;;;;3.85;3.30;;;19.80;99.90;;;;;;5024306;28;20440;-71
2021/08/25 03:15:09;;;;;;;4.00;3.10;;;19.80;99.90;;;;;;5029949;28;20112;-72
2021/08/25 03:17:35;;;;;;;3.53;3.22;;;19.80;99.90;;;;;;5026398;28;20052;-71
2021/08/25 03:20:01;;;;;;;3.92;3.60;;;19.80;99.90;;;;;;5028151;28;20495;-71
2021/08/25 03:22:28;;;;;;;4.13;3.28;;;19.70;99.90;;;;;;5030757;28;20025;-73
2021/08/25 03:24:55;;;;;;;4.03;3.67;;;19.90;99.90;;;;;;5029295;28;20033;-72
2021/08/25 03:27:21;;;;;;;4.63;4.18;;;19.70;99.90;;;;;;5026361;28;20029;-72
2021/08/25 03:29:47;;;;;;;5.63;3.78;;;19.70;99.90;;;;;;5028929;28;20026;-71
2021/08/25 03:32:12;;;;;;;4.40;3.85;;;19.80;99.90;;;;;;5029481;28;20037;-72
2021/08/25 03:34:38;;;;;;;4.85;2.65;;;19.80;99.90;;;;;;5024516;28;20025;-71
2021/08/25 03:37:04;;;;;;;4.30;3.85;;;19.60;99.90;;;;;;5028872;28;20037;-70
2021/08/25 03:39:31;;;;;;;4.47;3.53;;;19.60;99.90;;;;;;5027753;28;20111;-73
2021/08/25 03:41:57;;;;;;;3.75;3.45;;;19.60;99.90;;;;;;5030018;28;20029;-72
2021/08/25 03:44:23;;;;;;;3.97;3.58;;;19.50;99.90;;;;;;5025171;28;20037;-71
2021/08/25 03:46:48;;;;;;;4.30;3.58;;;19.50;99.90;;;;;;5028929;28;20499;-70
2021/08/25 03:49:14;;;;;;;4.85;4.32;;;19.60;99.90;;;;;;5030950;28;20046;-71
2021/08/25 03:51:40;;;;;;;4.55;3.83;;;19.60;99.90;;;;;;5025197;28;20029;-71
2021/08/25 03:54:06;;;;;;;5.78;5.18;;;19.60;99.90;;;;;;5027989;28;20033;-72
2021/08/25 03:56:31;;;;;;;5.78;4.93;;;19.50;99.90;;;;;;5026610;28;20025;-73
2021/08/25 03:58:57;;;;;;;4.72;4.22;;;19.40;99.90;;;;;;5022828;28;20068;-72
2021/08/25 04:01:23;;;;;;;7.90;5.20;;;19.40;99.90;;;;;;5018292;28;20480;-72
2021/08/25 04:03:48;;;;;;;5.50;4.75;;;19.50;99.90;;;;;;5027493;28;20041;-71
2021/08/25 04:06:14;;;;;;;8.45;4.15;;;19.50;99.90;;;;;;5016648;28;20044;-71
2021/08/25 04:08:40;;;;;;;7.13;4.53;;;19.60;99.90;;;;;;5027950;28;20071;-71
2021/08/25 04:11:06;;;;;;;5.47;4.68;;;19.50;99.90;;;;;;5029557;28;20087;-71
2021/08/25 04:13:32;;;;;;;7.32;6.00;;;19.50;99.90;;;;;;5028491;28;20021;-70
2021/08/25 04:15:57;;;;;;;8.00;4.70;;;19.50;99.90;;;;;;5030194;28;20507;-71
2021/08/25 04:18:25;;;;;;;8.32;3.70;;;19.60;99.90;;;;;;5028543;28;20033;-70
2021/08/25 04:20:51;;;;;;;4.50;4.10;;;19.60;99.90;;;;;;5020025;28;20025;-72
2021/08/25 04:23:18;;;;;;;7.35;4.53;;;19.60;99.90;;;;;;5024907;28;20411;-72
2021/08/25 04:25:44;;;;;;;5.78;3.78;;;19.60;99.90;;;;;;5030229;28;20021;-72
2021/08/25 04:28:10;;;;;;;5.10;4.60;;;19.60;99.90;;;;;;5024837;28;20043;-71
2021/08/25 04:30:37;;;;;;;4.90;4.00;;;19.70;99.90;;;;;;5024973;28;20029;-71
2021/08/25 04:33:03;;;;;;;6.75;5.45;;;19.70;99.90;;;;;;5022652;28;20129;-71
2021/08/25 04:35:29;;;;;;;5.80;4.28;;;19.70;99.90;;;;;;5023810;28;20088;-71
2021/08/25 04:37:55;;;;;;;5.35;3.75;;;19.70;99.90;;;;;;5029755;28;20526;-72
2021/08/25 04:40:21;;;;;;;11.10;4.88;;;19.70;99.90;;;;;;5018787;28;20078;-71
2021/08/25 04:42:46;;;;;;;6.45;3.88;;;19.80;99.90;;;;;;5030118;28;20026;-70
2021/08/25 04:45:14;;;;;;;5.57;5.07;;;19.70;99.90;;;;;;5026279;28;20109;-72
2021/08/25 04:47:39;;;;;;;5.05;4.60;;;19.80;99.90;;;;;;5023834;28;20168;-72
2021/08/25 04:50:05;;;;;;;9.05;4.63;;;19.80;99.90;;;;;;5029558;28;20116;-71
2021/08/25 04:52:31;;;;;;;6.32;4.15;;;19.80;99.90;;;;;;5027910;28;20025;-72
2021/08/25 04:54:57;;;;;;;4.82;4.32;;;19.90;99.90;;;;;;5016407;28;20107;-71
2021/08/25 04:57:22;;;;;;;7.93;4.72;;;19.90;99.90;;;;;;5020618;28;20119;-70
2021/08/25 04:59:48;;;;;;;9.65;4.65;;;19.90;99.90;;;;;;5026403;28;20365;-72
2021/08/25 05:02:14;;;;;;;8.88;4.30;;;19.80;99.90;;;;;;5022699;28;20037;-73
2021/08/25 05:04:40;;;;;;;3.92;3.60;;;19.90;99.90;;;;;;5032257;28;20029;-71
2021/08/25 05:07:05;;;;;;;8.10;5.10;;;19.90;99.90;;;;;;5030430;28;20032;-71
2021/08/25 05:09:31;;;;;;;5.25;4.75;;;19.90;99.90;;;;;;5030888;28;20033;-72
2021/08/25 05:11:57;;;;;;;5.85;3.72;;;19.90;99.90;;;;;;5032556;28;20036;-71
2021/08/25 05:14:23;;;;;;;5.07;4.57;;;20.00;99.90;;;;;;5028534;28;20035;-72
2021/08/25 05:16:49;;;;;;;6.32;3.92;;;20.00;99.90;;;;;;5027253;28;20060;-73
2021/08/25 05:19:14;;;;;;;5.40;4.88;;;20.00;99.90;;;;;;5026264;28;20112;-71
2021/08/25 05:21:40;;;;;;;4.05;3.65;;;20.10;99.90;;;;;;5029296;28;20108;-72
2021/08/25 05:24:06;;;;;;;6.53;4.20;;;20.10;99.90;;;;;;5033943;28;20419;-72
2021/08/25 05:26:31;;;;;;;7.32;4.18;;;20.10;99.90;;;;;;5032849;28;20129;-72
2021/08/25 05:28:57;;;;;;;7.78;4.75;;;20.00;99.90;;;;;;5028329;28;20019;-71
2021/08/25 05:31:26;;;;;;;4.28;3.88;;;20.10;99.90;;;;;;5026454;28;20037;-70
2021/08/25 05:33:52;;;;;;;3.25;2.95;;;20.20;99.90;;;;;;5028233;28;20029;-73
2021/08/25 05:36:18;;;;;;;4.28;3.42;;;20.20;99.90;;;;;;5033468;28;20390;-71
2021/08/25 05:38:45;;;;;;;4.40;3.70;;;20.20;99.90;;;;;;5029611;28;20026;-71
2021/08/25 05:41:10;;;;;;;5.97;3.97;;;20.30;99.90;;;;;;5028836;28;20026;-71
2021/08/25 05:43:36;;;;;;;8.75;4.78;;;20.20;99.90;;;;;;5029454;28;20036;-73
2021/08/25 05:46:02;;;;;;;6.10;3.80;;;20.20;99.90;;;;;;5021947;28;20022;-71
2021/08/25 05:48:28;;;;;;;3.58;3.25;;;20.20;99.90;;;;;;5030740;28;20562;-71
2021/08/25 05:50:54;;;;;;;6.43;4.60;;;20.20;99.90;;;;;;5030743;28;20029;-71
2021/08/25 05:53:20;;;;;;;4.38;3.88;;;20.20;99.90;;;;;;5020543;28;20471;-70
2021/08/25 05:55:46;;;;;;;4.97;3.72;;;20.00;99.90;;;;;;5027952;28;20021;-72
2021/08/25 05:58:11;;;;;;;6.32;4.50;;;20.10;99.90;;;;;;5026016;28;20415;-71
2021/08/25 06:00:37;;;;;;;5.55;4.00;;;20.20;99.90;;;;;;5028209;28;20040;-72
2021/08/25 06:03:03;;;;;;;5.88;3.83;;;20.10;99.90;;;;;;5030736;28;20104;-71
2021/08/25 06:05:29;;;;;;;4.80;4.25;;;20.10;99.90;;;;;;5030977;28;20385;-70
2021/08/25 06:07:55;;;;;;;9.75;4.15;;;20.10;99.90;;;;;;5032584;28;20041;-71
2021/08/25 06:10:21;;;;;;;5.25;4.35;;;20.20;99.90;;;;;;5023489;28;20021;-71
2021/08/25 06:12:47;;;;;;;6.38;4.85;;;20.10;99.90;;;;;;5021126;28;20425;-72
2021/08/25 06:15:13;;;;;;;6.22;4.38;;;20.10;99.90;;;;;;5022265;28;20044;-70
2021/08/25 06:17:39;;;;;;;4.70;3.80;;;20.20;99.90;;;;;;5031428;28;20381;-73
2021/08/25 06:20:05;;;;;;;6.43;4.53;;;20.20;99.90;;;;;;5031670;28;20369;-72
2021/08/25 06:22:32;;;;;;;5.22;4.72;;;20.20;99.90;;;;;;5026083;28;20026;-71
2021/08/25 06:24:58;;;;;;;5.35;3.70;;;20.30;99.90;;;;;;5024224;28;20477;-71
2021/08/25 06:27:24;;;;;;;7.10;4.60;;;20.40;99.90;;;;;;5031971;28;20040;-71
2021/08/25 06:29:51;;;;;;;3.72;3.42;;;20.30;99.90;;;;;;5021310;28;20029;-71
2021/08/25 06:32:17;;;;;;;5.25;3.67;;;20.40;99.90;;;;;;5030654;28;20029;-72
2021/08/25 06:34:43;;;;;;;9.13;4.30;;;20.50;99.90;;;;;;5026217;28;20437;-73
2021/08/25 06:37:09;;;;;;;6.85;5.35;;;20.50;99.90;;;;;;5011086;28;20037;-72
2021/08/25 06:39:35;;;;;;;7.65;4.95;;;20.40;99.90;;;;;;5022713;28;20030;-70
2021/08/25 06:42:00;;;;;;;4.20;3.38;;;20.40;99.90;;;;;;5027240;28;20029;-73
2021/08/25 06:44:26;;;;;;;3.50;3.22;;;20.50;99.90;;;;;;5030591;28;20078;-73
2021/08/25 06:46:52;;;;;;;6.45;3.80;;;20.70;99.90;;;;;;5031103;28;20025;-72
2021/08/25 06:49:18;;;;;;;3.95;3.45;;;20.70;99.90;;;;;;5030021;28;20155;-73
2021/08/25 06:51:44;;;;;;;6.30;3.42;;;20.80;99.90;;;;;;5027136;28;20100;-73
2021/08/25 06:54:10;;;;;;;4.43;4.00;;;20.80;99.90;;;;;;5020610;28;20091;-73
2021/08/25 06:56:36;;;;;;;3.83;3.17;;;20.70;99.90;;;;;;5009019;28;20108;-71
2021/08/25 06:59:02;;;;;;;7.10;3.50;;;20.70;99.90;;;;;;5019361;28;20026;-74
2021/08/25 07:01:27;;;;;;;7.05;3.88;;;20.70;99.90;;;;;;5023223;28;20025;-74
2021/08/25 07:03:53;;;;;;;6.65;3.65;;;20.70;99.90;;;;;;5016504;28;20124;-71
2021/08/25 07:06:19;;;;;;;9.45;4.63;;;20.80;99.90;;;;;;5019770;28;20115;-69
2021/08/25 07:08:46;;;;;;;6.00;4.43;;;20.80;99.90;;;;;;5026997;28;20399;-71
2021/08/25 07:11:12;;;;;;;3.83;3.38;;;20.90;99.90;;;;;;5024666;28;20021;-71
2021/08/25 07:13:37;;;;;;;6.32;4.00;;;20.90;99.90;;;;;;5031946;28;20132;-71
2021/08/25 07:16:04;;;;;;;4.93;3.45;;;21.00;99.90;;;;;;5031513;28;20087;-71
2021/08/25 07:18:29;;;;;;;5.32;3.78;;;21.10;99.90;;;;;;5022020;28;20026;-71
2021/08/25 07:20:55;;;;;;;3.72;3.40;;;21.10;99.90;;;;;;5025990;28;20407;-71
2021/08/25 07:23:21;;;;;;;7.03;3.83;;;21.10;99.90;;;;;;5022606;28;20034;-72
2021/08/25 07:25:47;;;;;;;4.07;3.38;;;21.20;99.90;;;;;;5030357;28;20083;-71
2021/08/25 07:28:13;;;;;;;3.35;2.63;;;21.20;99.90;;;;;;5031481;28;20084;-72
2021/08/25 07:30:38;;;;;;;4.97;3.28;;;21.30;99.90;;;;;;5027589;28;20574;-71
2021/08/25 07:33:04;;;;;;;3.22;2.80;;;21.50;99.90;;;;;;5030807;28;20124;-70
2021/08/25 07:35:30;;;;;;;3.72;3.33;;;21.40;99.90;;;;;;5024915;28;20056;-71
2021/08/25 07:37:57;;;;;;;10.85;4.40;;;21.50;99.90;;;;;;5023572;28;20057;-72
2021/08/25 07:40:23;;;;;;;4.13;3.38;;;21.60;99.90;;;;;;5028710;28;20033;-72
2021/08/25 07:42:49;;;;;;;4.40;4.00;;;21.60;99.90;;;;;;5031375;28;20029;-70
2021/08/25 07:45:14;;;;;;;3.72;3.22;;;21.70;99.90;;;;;;5026132;28;20018;-71
2021/08/25 07:47:40;;;;;;;5.25;4.38;;;21.80;99.90;;;;;;5028980;28;20113;-70
2021/08/25 07:50:08;;;;;;;4.68;3.97;;;21.90;99.90;;;;;;5028989;28;20033;-69
2021/08/25 07:52:34;;;;;;;3.55;3.25;;;21.90;99.90;;;;;;5030625;28;20032;-71
2021/08/25 07:55:00;;;;;;;7.10;3.72;;;21.70;99.90;;;;;;5031571;28;20025;-70
2021/08/25 07:57:26;;;;;;;5.28;3.40;;;21.70;99.90;;;;;;5027430;28;20037;-70
2021/08/25 07:59:51;;;;;;;5.70;3.42;;;21.70;99.90;;;;;;5026679;28;20387;-72
2021/08/25 08:02:17;;;;;;;3.63;3.22;;;22.00;99.90;;;;;;5028830;28;20034;-70
2021/08/25 08:04:43;;;;;;;5.07;3.10;;;21.90;99.90;;;;;;5024664;28;20458;-72
2021/08/25 08:07:09;;;;;;;5.63;4.25;;;21.90;99.90;;;;;;5034704;28;20026;-71
2021/08/25 08:09:34;;;;;;;6.43;3.83;;;22.00;99.90;;;;;;5018557;28;20059;-71
2021/08/25 08:12:00;;;;;;;6.40;3.70;;;22.00;99.90;;;;;;5028261;28;20038;-71
2021/08/25 08:14:26;;;;;;;4.15;3.22;;;22.20;99.90;;;;;;5024550;28;20725;-69
2021/08/25 08:16:55;;;;;;;4.05;3.65;;;22.30;99.90;;;;;;5023156;28;20057;-70
2021/08/25 08:19:33;;;;;;;5.90;3.55;;;22.40;99.90;;;;;;5031565;28;20017;-72
2021/08/25 08:22:00;;;;;;;5.00;3.65;;;22.50;99.90;;;;;;5035037;28;20030;-69
2021/08/25 08:24:27;;;;;;;3.92;3.47;;;22.40;99.90;;;;;;5028794;28;20017;-69
2021/08/25 08:26:54;;;;;;;4.95;3.83;;;22.40;99.90;;;;;;5034257;28;20033;-71
2021/08/25 08:29:20;;;;;;;4.13;2.92;;;22.30;99.90;;;;;;5033213;28;20026;-73
2021/08/25 08:31:46;;;;;;;4.20;3.80;;;22.30;99.90;;;;;;5016025;28;20517;-72
2021/08/25 08:34:12;;;;;;;8.27;3.67;;;22.30;99.90;;;;;;5017151;28;20432;-71
2021/08/25 08:36:38;;;;;;;4.15;3.75;;;22.20;99.90;;;;;;5018572;28;20049;-71
2021/08/25 08:39:04;;;;;;;4.13;3.10;;;22.10;99.90;;;;;;5017542;28;20089;-70
2021/08/25 08:41:30;;;;;;;4.40;3.75;;;22.20;99.90;;;;;;5015188;28;20319;-71
2021/08/25 08:43:57;;;;;;;5.40;3.63;;;22.20;99.90;;;;;;5027536;28;20022;-70
2021/08/25 08:46:24;;;;;;;6.82;3.17;;;22.30;99.90;;;;;;5026043;28;20025;-70
2021/08/25 08:48:51;;;;;;;6.80;4.75;;;22.40;99.90;;;;;;5030909;28;20025;-72
2021/08/25 08:51:21;;;;;;;4.97;4.00;;;22.40;99.90;;;;;;5015314;28;20384;-70
2021/08/25 08:53:48;;;;;;;7.20;4.10;;;22.60;99.90;;;;;;5012781;28;20029;-71
2021/08/25 08:56:15;;;;;;;6.70;3.85;;;22.50;99.90;;;;;;5013030;28;20041;-70
2021/08/25 08:58:42;;;;;;;6.18;4.00;;;22.50;99.90;;;;;;5014079;28;20029;-71
2021/08/25 09:01:08;;;;;;;5.95;5.05;;;22.60;99.90;;;;;;5035972;28;20064;-71
2021/08/25 09:03:37;;;;;;;7.63;4.05;;;22.60;99.90;;;;;;5037138;28;20056;-70
2021/08/25 09:06:04;;;;;;;5.03;3.38;;;22.80;99.90;;;;;;5033373;28;20492;-71
2021/08/25 09:08:32;;;;;;;4.80;4.40;;;23.00;99.90;;;;;;5031471;28;20487;-71
2021/08/25 09:11:01;;;;;;;6.03;4.65;;;23.00;99.90;;;;;;5030070;28;20025;-69
2021/08/25 09:13:39;;;;;;;6.10;4.57;;;23.20;99.90;;;;;;5026494;28;20022;-70
2021/08/25 09:16:06;;;;;;;3.88;3.47;;;23.30;99.90;;;;;;5010438;28;20097;-71
2021/08/25 09:18:33;;;;;;;7.82;4.43;;;23.10;99.90;;;;;;5011189;28;20388;-69
2021/08/25 09:20:58;;;;;;;8.13;5.07;;;22.90;99.90;;;;;;5011309;28;20566;-69
2021/08/25 09:23:29;;;;;;;4.97;4.45;;;23.10;99.90;;;;;;5031207;28;20060;-74
2021/08/25 09:26:00;;;;;;;4.32;3.92;;;23.30;99.90;;;;;;5030252;28;20025;-71
2021/08/25 09:28:30;;;;;;;5.90;4.40;;;23.30;99.90;;;;;;5029799;28;20091;-73
2021/08/25 09:31:13;;;;;;;6.30;4.35;;;23.40;99.90;;;;;;5024187;28;20045;-71
2021/08/25 09:33:43;;;;;;;5.07;4.05;;;23.40;99.90;;;;;;5009883;28;20034;-72
2021/08/25 09:36:12;;;;;;;10.60;4.32;;;23.40;99.90;;;;;;5012052;28;20095;-72
2021/08/25 09:38:39;;;;;;;5.72;4.30;;;23.30;99.90;;;;;;5012184;28;20112;-72
2021/08/25 09:41:09;;;;;;;6.90;4.70;;;23.40;99.90;;;;;;5013547;28;20010;-72
2021/08/25 09:43:37;;;;;;;6.75;4.30;;;23.30;99.90;;;;;;5033097;28;20037;-71
2021/08/25 09:46:24;;;;;;;3.53;3.22;;;23.30;99.90;;;;;;5033219;28;20037;-74
2021/08/25 09:48:59;;;;;;;5.38;4.30;;;23.30;99.90;;;;;;5033256;28;20021;-69
2021/08/25 09:51:26;;;;;;;6.13;4.57;;;23.20;99.90;;;;;;5030823;28;20049;-69
2021/08/25 09:54:05;;;;;;;8.15;3.70;;;23.20;99.90;;;;;;5023527;28;20044;-72
2021/08/25 09:56:33;;;;;;;7.20;4.03;;;23.10;99.90;;;;;;5025251;28;20030;-68
2021/08/25 09:59:01;;;;;;;5.07;4.55;;;23.10;99.90;;;;;;5028622;28;20021;-71
2021/08/25 10:01:27;;;;;;;5.03;4.53;;;23.30;99.90;;;;;;5032287;28;20453;-71
2021/08/25 10:03:54;;;;;;;5.25;4.57;;;23.30;99.90;;;;;;5032883;28;20429;-71
2021/08/25 10:06:22;;;;;;;5.28;4.50;;;23.40;99.90;;;;;;5033331;28;20041;-72
2021/08/25 10:08:49;;;;;;;7.78;4.95;;;23.30;99.90;;;;;;5033147;28;20084;-72
2021/08/25 10:11:17;;;;;;;4.32;3.92;;;23.30;99.90;;;;;;5031893;28;20475;-72
2021/08/25 10:13:43;;;;;;;4.63;4.13;;;23.70;99.90;;;;;;5012646;28;20045;-73
2021/08/25 10:16:45;;;;;;;3.78;3.38;;;23.90;99.90;;;;;;5013171;28;20423;-72
2021/08/25 10:19:23;;;;;;;;;;;24.10;99.90;;;;;;5013344;28;20485;-72
2021/08/25 10:21:49;;;;;;;5.47;4.50;;;24.20;99.90;;;;;;5028188;28;19913;-71
2021/08/25 10:24:15;;;;;;;4.97;4.47;;;24.10;99.90;;;;;;5014216;28;20032;-71
2021/08/25 10:26:59;;;;;;;7.28;4.80;;;24.20;99.90;;;;;;5014348;28;20446;-70
2021/08/25 10:29:26;;;;;;;5.88;3.78;;;24.20;99.90;;;;;;5014232;28;20025;-70
2021/08/25 10:31:56;;;;;;;5.65;4.72;;;24.20;99.90;;;;;;5019142;28;20061;-72
2021/08/25 10:34:25;;;;;;;4.43;3.80;;;24.00;99.90;;;;;;5034574;28;20028;-71
2021/08/25 10:36:52;;;;;;;4.05;3.63;;;24.10;99.90;;;;;;5032370;28;20026;-71
2021/08/25 10:39:31;;;;;;;5.05;3.88;;;24.20;99.90;;;;;;5032670;28;20017;-70
2021/08/25 10:41:58;;;;;;;5.03;4.45;;;24.10;99.90;;;;;;5029669;28;20097;-71
2021/08/25 10:44:39;;;;;;;7.43;4.05;;;24.10;99.90;;;;;;5014818;28;20080;-72
2021/08/25 10:47:10;;;;;;;5.97;4.32;;;24.00;99.90;;;;;;5014827;28;20022;-71
2021/08/25 10:49:38;;;;;;;5.38;4.15;;;24.00;99.90;;;;;;5013599;28;20045;-70
2021/08/25 10:52:16;;;;;;;7.40;4.32;;;24.10;99.90;;;;;;5015459;28;20101;-69
2021/08/25 10:54:47;;;;;;;7.03;4.95;;;24.10;99.90;;;;;;5013628;28;20076;-70
2021/08/25 10:57:15;;;;;;;5.40;4.70;;;24.20;99.90;;;;;;5015266;28;20093;-72
2021/08/25 10:59:40;;;;;;;5.43;4.82;;;24.60;99.90;;;;;;5020481;28;20117;-71
2021/08/25 11:02:07;;;;;;;4.32;3.92;;;24.80;99.90;;;;;;5017698;28;20108;-70
2021/08/25 11:04:33;;;;;;;6.05;4.60;;;24.60;99.90;;;;;;5028179;28;20037;-70
2021/08/25 11:07:08;;;;;;;5.07;4.53;;;24.60;99.90;;;;;;5029855;28;20120;-71
2021/08/25 11:09:34;;;;;;;7.72;4.88;;;24.60;99.90;;;;;;5029733;28;20026;-71
2021/08/25 11:12:08;;;;;;;5.30;4.43;;;24.40;99.80;;;;;;5029468;28;20044;-70
2021/08/25 11:14:41;;;;;;;6.95;4.72;;;24.60;99.80;;;;;;5031602;28;20120;-72
2021/08/25 11:17:38;;;;;;;5.65;4.85;;;24.50;99.90;;;;;;5032412;28;20075;-72
2021/08/25 11:20:07;;;;;;;9.65;4.80;;;24.70;99.90;;;;;;5031601;28;20029;-71
2021/08/25 11:22:44;;;;;;;5.93;4.57;;;24.80;99.90;;;;;;5022756;28;20029;-69
2021/08/25 11:25:14;;;;;;;8.15;5.47;;;24.80;99.70;;;;;;5013896;28;20083;-70
2021/08/25 11:27:43;;;;;;;6.82;4.80;;;24.70;99.90;;;;;;5031483;28;20022;-70
2021/08/25 11:30:21;;;;;;;5.38;4.88;;;24.70;99.90;;;;;;5031717;28;20025;-70
2021/08/25 11:32:53;;;;;;;7.40;5.32;;;24.90;99.90;;;;;;5030372;28;20030;-71
2021/08/25 11:35:42;;;;;;;8.55;5.57;;;25.10;99.30;;;;;;5031667;28;20040;-70
2021/08/25 11:38:18;;;;;;;6.28;4.75;;;25.00;99.60;;;;;;5030473;28;20064;-71
2021/08/25 11:40:49;;;;;;;5.85;4.57;;;24.70;99.50;;;;;;5031271;28;20478;-71
2021/08/25 11:43:16;;;;;;;5.88;4.55;;;24.80;99.90;;;;;;5017524;28;20030;-71
2021/08/25 11:45:43;;;;;;;8.30;5.57;;;25.00;99.10;;;;;;5011312;28;20551;-71
2021/08/25 11:48:10;;;;;;;5.75;5.15;;;24.70;98.80;;;;;;5011436;28;20057;-72
2021/08/25 11:50:40;;;;;;;5.35;4.85;;;24.70;98.70;;;;;;5011597;28;20475;-71
2021/08/25 11:53:18;;;;;;;6.30;4.75;;;24.60;98.40;;;;;;5022893;28;20030;-72
2021/08/25 11:55:45;;;;;;;5.80;4.78;;;24.80;98.30;;;;;;5030736;28;20056;-71
2021/08/25 11:58:33;;;;;;;6.20;5.30;;;24.90;98.40;;;;;;5029924;28;20022;-71
2021/08/25 12:01:00;;;;;;;8.05;5.63;;;25.20;98.20;;;;;;5031455;28;20025;-68
2021/08/25 12:03:42;;;;;;;5.78;5.15;;;25.10;97.70;;;;;;5014034;28;20018;-73
2021/08/25 12:06:08;;;;;;;7.13;6.43;;;25.30;97.80;;;;;;5012267;28;20032;-69
2021/08/25 12:08:45;;;;;;;9.20;5.70;;;25.40;97.30;;;;;;5011170;28;20091;-71
2021/08/25 12:11:12;;;;;;;10.52;5.60;;;25.50;96.40;;;;;;5021449;28;20165;-73
2021/08/25 12:13:56;;;;;;;10.20;6.30;;;25.20;96.70;;;;;;5010788;28;20136;-70
2021/08/25 12:16:24;;;;;;;8.18;5.97;;;25.20;97.50;;;;;;5016563;28;20037;-71
2021/08/25 12:18:51;;;;;;;7.22;5.32;;;25.30;97.50;;;;;;5020852;28;20017;-72
2021/08/25 12:21:18;;;;;;;9.55;5.05;;;25.50;97.00;;;;;;5020059;28;20071;-71
2021/08/25 12:23:56;;;;;;;5.80;3.75;;;25.70;96.90;;;;;;5019252;28;20033;-71
2021/08/25 12:26:22;;;;;;;6.60;4.75;;;25.20;97.20;;;;;;5019556;28;20016;-71
2021/08/25 12:28:48;;;;;;;6.47;5.55;;;25.10;97.10;;;;;;5020975;28;20025;-72
2021/08/25 12:31:20;;;;;;;5.82;5.28;;;25.20;97.60;;;;;;5019132;28;20126;-73
2021/08/25 12:33:54;;;;;;;5.68;4.85;;;25.50;97.50;;;;;;5019770;28;20472;-73
2021/08/25 12:36:28;;;;;;;7.93;5.35;;;25.60;97.00;;;;;;5019331;28;20425;-70
2021/08/25 12:38:56;;;;;;;8.18;6.38;;;25.50;97.30;;;;;;5019476;28;20029;-70
2021/08/25 12:41:22;;;;;;;5.82;5.22;;;25.20;97.40;;;;;;5020623;28;20366;-69
2021/08/25 12:43:49;;;;;;;7.38;5.13;;;25.00;97.80;;;;;;5026871;28;20018;-71
2021/08/25 12:46:15;;;;;;;5.85;4.95;;;25.00;97.60;;;;;;5027241;28;20056;-71
2021/08/25 12:48:41;;;;;;;7.53;6.07;;;25.30;97.60;;;;;;5021900;28;20065;-70
2021/08/25 12:51:06;;;;;;;10.50;5.40;;;25.20;97.10;;;;;;5021196;28;20028;-72